createdAt,value
2023-03-24T00:03:45.813Z,12.60
2023-03-24T00:08:48.465Z,12.60
2023-03-24T00:13:50.976Z,12.60
2023-03-24T00:18:54.248Z,12.60
2023-03-24T00:23:58.596Z,12.70
2023-03-24T00:29:02.143Z,12.60
2023-03-24T00:34:05.639Z,12.60
2023-03-24T00:39:07.718Z,12.70
2023-03-24T00:44:09.914Z,12.80
2023-03-24T00:49:13.304Z,12.80
2023-03-24T00:54:16.304Z,12.80
2023-03-24T00:59:18.590Z,12.80
2023-03-24T01:04:20.877Z,12.80
2023-03-24T01:09:22.954Z,12.80
2023-03-24T01:14:25.278Z,12.80
2023-03-24T01:19:27.285Z,12.80
2023-03-24T01:24:29.754Z,12.80
2023-03-24T01:29:31.658Z,12.90
2023-03-24T01:34:35.835Z,12.90
2023-03-24T01:39:37.691Z,13.00
2023-03-24T01:44:39.569Z,13.00
2023-03-24T01:49:50.054Z,13.20
2023-03-24T01:54:54.577Z,13.30
2023-03-24T01:59:59.052Z,13.30
2023-03-24T02:05:04.486Z,13.30
2023-03-24T02:10:10.753Z,13.30
2023-03-24T02:15:15.993Z,13.40
2023-03-24T02:20:47.778Z,13.30
2023-03-24T02:26:08.278Z,13.30
2023-03-24T02:31:34.279Z,13.20
2023-03-24T02:36:49.108Z,13.20
2023-03-24T02:42:36.064Z,13.10
2023-03-24T02:47:44.230Z,13.10
2023-03-24T02:52:51.816Z,13.00
2023-03-24T02:57:58.951Z,12.80
2023-03-24T03:03:11.758Z,12.60
2023-03-24T03:08:17.589Z,12.20
2023-03-24T03:13:29.949Z,12.10
2023-03-24T03:18:39.375Z,12.10
2023-03-24T03:23:54.568Z,12.00
2023-03-24T03:29:00.744Z,11.90
2023-03-24T03:34:05.566Z,11.80
2023-03-24T03:39:14.485Z,11.70
2023-03-24T03:44:16.538Z,11.70
2023-03-24T03:49:18.584Z,11.50
2023-03-24T03:54:21.929Z,11.50
2023-03-24T03:59:30.014Z,11.50
2023-03-24T04:04:48.429Z,11.30
2023-03-24T04:10:19.440Z,11.20
2023-03-24T04:15:34.788Z,11.10
2023-03-24T04:20:58.209Z,11.00
2023-03-24T04:26:06.223Z,11.10
2023-03-24T04:31:14.428Z,11.10
2023-03-24T04:36:27.272Z,11.10
2023-03-24T04:41:30.768Z,11.10
2023-03-24T04:46:33.404Z,11.10
2023-03-24T04:51:35.664Z,11.00
2023-03-24T04:56:54.988Z,11.00
2023-03-24T05:01:56.902Z,11.00
2023-03-24T05:06:58.658Z,11.00
2023-03-24T05:12:01.806Z,11.00
2023-03-24T05:17:03.870Z,10.90
2023-03-24T05:22:05.907Z,10.90
2023-03-24T05:27:07.684Z,10.80
2023-03-24T05:32:09.552Z,10.80
2023-03-24T05:37:13.148Z,10.70
2023-03-24T05:42:16.772Z,10.70
2023-03-24T05:47:20.148Z,10.60
2023-03-24T05:52:22.569Z,10.50
2023-03-24T05:57:24.568Z,10.60
2023-03-24T06:02:26.632Z,10.50
2023-03-24T06:07:30.960Z,10.50
2023-03-24T06:12:32.867Z,10.50
2023-03-24T06:17:34.883Z,10.50
2023-03-24T06:22:37.598Z,10.50
2023-03-24T06:27:46.245Z,10.50
2023-03-24T06:32:48.130Z,10.40
2023-03-24T06:37:49.897Z,10.40
2023-03-24T06:42:52.023Z,10.40
2023-03-24T06:47:57.291Z,10.60
2023-03-24T06:53:00.363Z,10.60
2023-03-24T06:58:02.537Z,10.70
2023-03-24T07:03:04.502Z,10.70
2023-03-24T07:08:34.056Z,10.70
2023-03-24T07:13:28.696Z,10.70
2023-03-24T07:18:30.634Z,10.80
2023-03-24T07:23:33.159Z,10.90
2023-03-24T07:28:35.062Z,11.10
2023-03-24T07:33:40.110Z,11.20
2023-03-24T07:38:41.871Z,11.30
2023-03-24T07:43:43.949Z,11.40
2023-03-24T07:48:45.917Z,11.40
2023-03-24T07:53:47.834Z,11.60
2023-03-24T07:58:49.788Z,11.70
2023-03-24T08:03:54.764Z,11.70
2023-03-24T08:08:56.949Z,11.70
2023-03-24T08:13:58.876Z,11.70
2023-03-24T08:19:00.651Z,11.60
2023-03-24T08:24:02.418Z,11.60
2023-03-24T08:29:04.407Z,11.90
2023-03-24T08:34:11.595Z,12.00
2023-03-24T08:39:13.527Z,12.10
2023-03-24T08:44:15.603Z,12.50
2023-03-24T08:49:18.088Z,12.50
2023-03-24T08:54:21.732Z,12.40
2023-03-24T08:59:23.510Z,12.40
2023-03-24T09:04:25.365Z,12.30
2023-03-24T09:09:29.149Z,12.30
2023-03-24T09:14:31.043Z,12.50
2023-03-24T09:19:34.170Z,12.80
2023-03-24T09:24:36.420Z,13.10
2023-03-24T09:29:38.196Z,13.10
2023-03-24T09:34:40.038Z,13.10
2023-03-24T09:39:41.926Z,12.80
2023-03-24T09:44:50.148Z,12.90
2023-03-24T09:49:54.036Z,12.90
2023-03-24T09:54:58.787Z,12.80
2023-03-24T10:00:00.831Z,13.00
2023-03-24T10:05:02.765Z,12.90
2023-03-24T10:10:21.856Z,13.00
2023-03-24T10:15:37.835Z,13.00
2023-03-24T10:21:15.737Z,13.10
2023-03-24T10:26:23.421Z,13.20
2023-03-24T10:31:31.218Z,13.20
2023-03-24T10:36:33.487Z,13.20
2023-03-24T10:41:36.520Z,13.20
2023-03-24T10:46:45.840Z,13.70
2023-03-24T10:51:50.807Z,13.70
2023-03-24T10:56:59.282Z,13.60
2023-03-24T11:02:05.321Z,13.80
2023-03-24T11:07:20.794Z,14.00
2023-03-24T11:12:28.307Z,14.40
2023-03-24T11:17:30.387Z,14.30
2023-03-24T11:22:32.203Z,14.90
2023-03-24T11:27:42.622Z,14.60
2023-03-24T11:32:48.519Z,14.20
2023-03-24T11:37:50.562Z,14.20
2023-03-24T11:42:58.130Z,14.30
2023-03-24T11:48:01.226Z,14.20
2023-03-24T11:53:23.778Z,15.20
2023-03-24T11:58:49.799Z,15.00
2023-03-24T12:04:25.883Z,15.40
2023-03-24T12:09:47.096Z,15.70
2023-03-24T12:15:24.733Z,15.80
2023-03-24T12:20:59.987Z,15.40
2023-03-24T12:26:42.573Z,14.50
2023-03-24T12:31:53.912Z,14.60
2023-03-24T12:37:06.047Z,14.80
2023-03-24T12:42:14.181Z,15.30
2023-03-24T12:47:37.995Z,15.90
2023-03-24T12:53:05.074Z,15.70
2023-03-24T12:58:15.194Z,16.20
2023-03-24T13:03:23.452Z,16.10
2023-03-24T13:08:32.410Z,15.20
2023-03-24T13:13:41.289Z,15.80
2023-03-24T13:18:47.613Z,15.60
2023-03-24T13:24:08.590Z,14.90
2023-03-24T13:29:35.717Z,14.20
2023-03-24T13:35:01.602Z,13.80
2023-03-24T13:40:11.128Z,13.30
2023-03-24T13:45:41.237Z,12.70
2023-03-24T13:51:17.426Z,12.30
2023-03-24T13:56:36.387Z,12.10
2023-03-24T14:01:39.562Z,13.00
2023-03-24T14:06:53.678Z,13.50
2023-03-24T14:11:58.238Z,14.00
2023-03-24T14:17:05.975Z,14.00
2023-03-24T14:22:21.062Z,13.90
2023-03-24T14:27:35.912Z,13.70
2023-03-24T14:32:45.537Z,13.70
2023-03-24T14:37:58.726Z,13.60
2023-03-24T14:43:25.353Z,13.80
2023-03-24T14:48:35.173Z,13.90
2023-03-24T14:53:39.248Z,14.20
2023-03-24T14:58:44.129Z,15.00
2023-03-24T15:04:08.279Z,15.70
2023-03-24T15:09:10.876Z,16.20
2023-03-24T15:14:34.163Z,15.70
2023-03-24T15:19:36.134Z,16.50
2023-03-24T15:24:38.880Z,17.20
2023-03-24T15:29:43.345Z,17.10
2023-03-24T15:34:52.059Z,17.20
2023-03-24T15:40:01.704Z,16.80
2023-03-24T15:45:23.433Z,17.00
2023-03-24T15:50:40.770Z,16.90
2023-03-24T15:55:43.989Z,16.80
2023-03-24T16:00:46.509Z,17.10
2023-03-24T16:05:51.062Z,15.90
2023-03-24T16:11:04.221Z,15.60
2023-03-24T16:16:15.100Z,16.30
2023-03-24T16:21:20.504Z,15.50
2023-03-24T16:26:26.387Z,15.10
2023-03-24T16:31:30.979Z,14.90
2023-03-24T16:36:33.016Z,14.50
2023-03-24T16:41:34.945Z,14.70
2023-03-24T16:46:37.684Z,14.70
2023-03-24T16:51:39.952Z,14.60
2023-03-24T16:56:42.011Z,14.30
2023-03-24T17:01:46.148Z,14.30
2023-03-24T17:06:53.309Z,14.30
2023-03-24T17:12:00.604Z,14.30
2023-03-24T17:17:04.478Z,14.00
2023-03-24T17:22:07.375Z,13.80
2023-03-24T17:27:17.951Z,13.70
2023-03-24T17:32:21.134Z,13.20
2023-03-24T17:37:26.591Z,12.30
2023-03-24T17:42:28.970Z,12.00
2023-03-24T17:47:31.335Z,11.60
2023-03-24T17:52:33.152Z,11.30
2023-03-24T17:57:35.190Z,11.20
2023-03-24T18:02:37.166Z,11.20
2023-03-24T18:07:40.539Z,11.20
2023-03-24T18:12:42.728Z,11.30
2023-03-24T18:17:44.744Z,11.20
2023-03-24T18:22:46.784Z,11.30
2023-03-24T18:27:48.571Z,11.20
2023-03-24T18:32:50.368Z,11.10
2023-03-24T18:37:52.204Z,10.90
2023-03-24T18:42:54.101Z,11.00
2023-03-24T18:47:56.219Z,10.90
2023-03-24T18:52:57.974Z,10.70
2023-03-24T18:57:59.725Z,10.80
2023-03-24T19:03:02.031Z,10.70
2023-03-24T19:08:07.002Z,10.60
2023-03-24T19:13:14.018Z,10.50
2023-03-24T19:18:15.965Z,10.50
2023-03-24T19:23:18.722Z,10.50
2023-03-24T19:28:21.634Z,10.50
2023-03-24T19:33:23.505Z,10.50
2023-03-24T19:38:25.233Z,10.40
2023-03-24T19:43:27.084Z,10.40
2023-03-24T19:48:29.155Z,10.40
2023-03-24T19:53:31.863Z,10.40
2023-03-24T19:58:33.651Z,10.30
2023-03-24T20:03:36.647Z,10.40
2023-03-24T20:08:39.295Z,10.40
2023-03-24T20:13:41.538Z,10.40
2023-03-24T20:18:43.278Z,10.40
2023-03-24T20:23:45.142Z,10.40
2023-03-24T20:28:48.236Z,10.50
2023-03-24T20:33:50.260Z,10.60
2023-03-24T20:38:52.612Z,10.50
2023-03-24T20:43:54.465Z,10.30
2023-03-24T20:48:56.608Z,10.10
2023-03-24T20:53:58.642Z,10.20
2023-03-24T20:59:01.204Z,10.20
2023-03-24T21:04:09.107Z,10.10
2023-03-24T21:09:11.768Z,10.10
2023-03-24T21:14:13.525Z,10.10
2023-03-24T21:19:16.039Z,10.10
2023-03-24T21:24:18.303Z,10.10
2023-03-24T21:29:22.500Z,10.20
2023-03-24T21:34:24.426Z,10.10
2023-03-24T21:39:26.396Z,10.10
2023-03-24T21:44:28.227Z,10.00
2023-03-24T21:49:30.014Z,10.00
2023-03-24T21:54:33.414Z,10.00
2023-03-24T21:59:37.416Z,10.00
2023-03-24T22:04:41.676Z,10.00
2023-03-24T22:09:43.930Z,10.00
2023-03-24T22:14:45.715Z,10.10
2023-03-24T22:19:47.494Z,10.00
2023-03-24T22:24:49.328Z,10.00
2023-03-24T22:29:51.102Z,10.00
2023-03-24T22:34:53.234Z,10.10
2023-03-24T22:39:55.067Z,10.10
2023-03-24T22:44:56.862Z,10.00
2023-03-24T22:49:58.618Z,10.10
2023-03-24T22:55:01.129Z,10.10
2023-03-24T23:00:05.958Z,10.10
2023-03-24T23:05:07.993Z,10.10
2023-03-24T23:10:12.904Z,10.10
2023-03-24T23:15:17.896Z,10.10
2023-03-24T23:20:20.094Z,10.00
2023-03-24T23:25:22.195Z,10.10
2023-03-24T23:30:24.085Z,10.00
2023-03-24T23:35:26.572Z,9.90
2023-03-24T23:40:28.408Z,9.90
2023-03-24T23:45:30.436Z,9.90
2023-03-24T23:50:32.737Z,9.90
2023-03-24T23:55:34.490Z,9.80
